Time;durP1;ratioP1;P1;durP2;ratioP2;P2;SDS_P1;SDS_P2;PMS_P1;PMS_P2;Temp;Humidity;BMP_temperature;BMP_pressure;BME280_temperature;BME280_humidity;BME280_pressure;Samples;Min_cycle;Max_cycle;Signal;HPM_P1;HPM_P2
2021/10/28 08:15:41;;;;;;;66.25;16.80;;;11.50;94.00;;;;;;5037452;28;20452;-88
2021/10/28 08:31:09;;;;;;;57.42;15.85;;;11.70;93.30;;;;;;5019412;28;20132;-88
2021/10/28 08:33:34;;;;;;;54.95;15.05;;;11.70;93.30;;;;;;5026298;28;20150;-89
2021/10/28 08:36:09;;;;;;;78.22;16.80;;;11.70;93.20;;;;;;5036718;28;20025;-90
2021/10/28 08:38:39;;;;;;;67.63;16.85;;;11.80;93.20;;;;;;5026577;28;20048;-89
2021/10/28 08:41:09;;;;;;;83.53;17.17;;;11.80;93.10;;;;;;5025731;28;20029;-89
2021/10/28 08:43:36;;;;;;;61.92;15.60;;;11.80;93.00;;;;;;5038366;28;20036;-90
2021/10/28 08:46:03;;;;;;;62.20;15.82;;;11.80;92.90;;;;;;5022429;28;20059;-88
2021/10/28 08:48:31;;;;;;;64.80;15.27;;;11.80;92.80;;;;;;5022805;28;20045;-91
2021/10/28 08:57:17;;;;;;;84.10;17.13;;;11.90;92.80;;;;;;5037471;28;20032;-90
2021/10/28 08:59:22;;;;;;;74.57;17.90;;;11.90;92.70;;;;;;5036012;28;20052;-89
2021/10/28 09:26:49;;;;;;;116.47;20.70;;;12.10;92.60;;;;;;5023304;28;20050;-89
2021/10/28 09:29:21;;;;;;;113.57;18.33;;;12.10;92.80;;;;;;5008987;28;20514;-91
2021/10/28 09:32:39;;;;;;;91.85;16.02;;;12.20;92.30;;;;;;5009121;28;20041;-91
2021/10/28 09:43:47;;;;;;;120.53;20.35;;;12.30;92.10;;;;;;5021518;28;20044;-90
2021/10/28 09:51:30;;;;;;;67.47;15.05;;;12.30;92.10;;;;;;5024013;28;20079;-93
2021/10/28 09:59:51;;;;;;;95.35;20.13;;;12.50;92.00;;;;;;5017913;28;20826;-89
2021/10/28 10:02:34;;;;;;;80.07;18.08;;;12.50;92.10;;;;;;5020658;28;20165;-89
2021/10/28 10:05:03;;;;;;;87.18;17.95;;;12.40;92.00;;;;;;5025626;28;20039;-90
2021/10/28 10:07:29;;;;;;;79.47;16.10;;;12.40;92.00;;;;;;5027096;28;20041;-89
2021/10/28 10:09:54;;;;;;;86.03;16.98;;;12.50;92.00;;;;;;5030929;28;20033;-91
2021/10/28 10:12:20;;;;;;;80.53;16.23;;;12.50;92.00;;;;;;5029382;28;20017;-90
2021/10/28 10:14:46;;;;;;;67.15;16.85;;;12.90;92.00;;;;;;5028469;28;20192;-90
2021/10/28 10:17:11;;;;;;;57.67;15.40;;;12.60;91.90;;;;;;5030041;28;20124;-90
2021/10/28 10:19:44;;;;;;;53.50;14.75;;;12.50;91.80;;;;;;5028848;28;20510;-91
2021/10/28 10:24:59;;;;;;;144.73;22.23;;;12.60;91.80;;;;;;5031804;28;20120;-92
2021/10/28 11:31:54;;;;;;;132.98;21.35;;;13.10;92.00;;;;;;4997146;28;20538;-90
2021/10/28 12:45:44;;;;;;;59.50;15.70;;;13.30;91.60;;;;;;5013385;28;20103;-92
2021/10/28 12:48:00;;;;;;;96.22;17.52;;;13.40;91.60;;;;;;5013613;28;20558;-90
2021/10/28 13:08:00;;;;;;;80.93;17.63;;;13.40;91.70;;;;;;5019603;28;20040;-91
2021/10/28 14:15:57;;;;;;;125.25;19.70;;;13.80;91.40;;;;;;5032149;28;20200;-89
2021/10/28 14:26:43;;;;;;;93.38;18.00;;;13.90;91.50;;;;;;5011474;28;20128;-89
2021/10/28 14:58:33;;;;;;;111.13;18.10;;;14.00;91.30;;;;;;5032521;28;20032;-89
2021/10/28 15:29:27;;;;;;;130.40;23.90;;;14.40;91.80;;;;;;5013019;28;20228;-90
2021/10/28 15:53:13;;;;;;;173.68;25.58;;;14.50;91.80;;;;;;5020446;28;20017;-91
2021/10/28 16:22:33;;;;;;;204.35;33.03;;;14.60;92.50;;;;;;5019200;28;20075;-90
2021/10/28 16:24:58;;;;;;;204.27;30.50;;;14.60;92.50;;;;;;4997582;28;20036;-91
2021/10/28 16:27:25;;;;;;;271.35;36.67;;;14.70;92.50;;;;;;5011683;28;20056;-90
2021/10/28 16:29:52;;;;;;;234.77;31.52;;;14.60;92.60;;;;;;5018752;28;20188;-91
2021/10/28 16:32:18;;;;;;;280.77;35.28;;;14.20;92.70;;;;;;5013970;28;20029;-90
2021/10/28 16:34:44;;;;;;;340.95;39.60;;;14.50;92.50;;;;;;5006629;28;20553;-91
2021/10/28 16:37:10;;;;;;;339.20;42.20;;;14.50;92.60;;;;;;5016718;28;20017;-90
2021/10/28 16:39:36;;;;;;;305.88;40.30;;;14.60;92.50;;;;;;5014857;28;20491;-92
2021/10/28 16:42:02;;;;;;;238.80;36.05;;;14.60;92.60;;;;;;5012783;28;20031;-90
2021/10/28 16:44:28;;;;;;;298.00;37.78;;;14.60;92.60;;;;;;4996813;28;20079;-90
2021/10/28 16:46:53;;;;;;;562.88;73.10;;;14.50;92.60;;;;;;5015182;28;20513;-90
2021/10/28 16:49:22;;;;;;;234.25;33.42;;;14.90;92.60;;;;;;5001219;28;20059;-91
2021/10/28 16:51:48;;;;;;;282.67;38.55;;;14.80;92.80;;;;;;5034611;28;20100;-90
2021/10/28 16:54:17;;;;;;;402.85;46.92;;;14.70;92.50;;;;;;5018203;28;20081;-91
2021/10/28 16:56:43;;;;;;;307.50;41.10;;;14.50;92.60;;;;;;5014681;28;20025;-88
2021/10/28 16:59:12;;;;;;;581.10;68.05;;;14.60;92.50;;;;;;5000040;28;20471;-91
2021/10/28 17:01:39;;;;;;;433.52;48.55;;;14.40;92.50;;;;;;4997455;28;20045;-89
2021/10/28 17:04:05;;;;;;;403.25;49.92;;;15.00;92.40;;;;;;5013882;28;20045;-90
2021/10/28 17:06:31;;;;;;;353.23;44.03;;;14.50;92.30;;;;;;4995440;28;20183;-90
2021/10/28 17:08:57;;;;;;;323.80;42.13;;;14.60;92.50;;;;;;4999378;28;20355;-90
2021/10/28 17:11:26;;;;;;;284.45;38.05;;;14.90;92.50;;;;;;5014379;28;20036;-90
2021/10/28 17:13:52;;;;;;;242.63;39.55;;;14.50;92.40;;;;;;5021390;28;20060;-89
2021/10/28 17:16:17;;;;;;;280.05;44.65;;;14.60;92.50;;;;;;5015088;28;20041;-90
2021/10/28 17:18:43;;;;;;;312.90;45.28;;;14.50;92.60;;;;;;5014173;28;20033;-89
2021/10/28 17:21:09;;;;;;;264.67;43.80;;;14.50;92.60;;;;;;5023589;28;20033;-91
2021/10/28 17:23:38;;;;;;;332.38;45.50;;;14.70;92.80;;;;;;5004402;28;20036;-90
2021/10/28 17:26:04;;;;;;;247.20;40.33;;;14.90;92.80;;;;;;4997754;28;20045;-90
2021/10/28 17:28:34;;;;;;;329.15;46.10;;;14.80;92.40;;;;;;4997473;28;20147;-91
2021/10/28 17:30:59;;;;;;;255.95;40.90;;;14.80;92.50;;;;;;4999546;28;20063;-91
2021/10/28 17:33:25;;;;;;;250.55;39.45;;;14.50;92.40;;;;;;4997765;28;20076;-91
2021/10/28 17:35:52;;;;;;;252.40;37.75;;;14.70;92.40;;;;;;5000113;28;20025;-91
2021/10/28 17:38:18;;;;;;;241.75;37.88;;;14.90;92.20;;;;;;4997810;28;20021;-92
2021/10/28 17:40:43;;;;;;;236.35;39.00;;;14.60;92.30;;;;;;5016956;28;20070;-91
2021/10/28 17:43:11;;;;;;;287.67;40.90;;;14.40;92.50;;;;;;4993492;28;20041;-90
2021/10/28 17:45:37;;;;;;;263.30;41.58;;;14.80;92.30;;;;;;4999563;28;20029;-91
2021/10/28 17:48:05;;;;;;;241.52;37.75;;;14.60;92.30;;;;;;5016732;28;20112;-91
2021/10/28 17:50:31;;;;;;;226.50;36.83;;;14.50;92.10;;;;;;5002579;28;20142;-90
2021/10/28 17:52:57;;;;;;;228.50;38.58;;;14.50;92.10;;;;;;5018659;28;20040;-89
2021/10/28 17:55:22;;;;;;;261.10;41.25;;;14.50;92.00;;;;;;5030321;28;20071;-89
2021/10/28 17:57:50;;;;;;;205.55;36.72;;;14.60;92.10;;;;;;5013520;28;20037;-90
2021/10/28 18:00:16;;;;;;;214.98;37.50;;;14.20;91.90;;;;;;4993949;28;20181;-92
2021/10/28 18:02:42;;;;;;;251.93;40.35;;;14.40;91.80;;;;;;4994016;28;20072;-89
2021/10/28 18:05:32;;;;;;;249.68;41.17;;;14.30;91.90;;;;;;5010741;28;20041;-90
2021/10/28 18:07:58;;;;;;;259.27;44.22;;;14.40;92.10;;;;;;5011667;28;20112;-91
2021/10/28 18:10:24;;;;;;;263.92;47.65;;;14.40;92.10;;;;;;5009935;28;20164;-94
2021/10/28 18:12:49;;;;;;;280.58;47.03;;;14.50;92.10;;;;;;4993371;28;20081;-91
2021/10/28 18:15:15;;;;;;;250.40;44.92;;;14.40;92.00;;;;;;5011121;28;20170;-93
2021/10/28 18:17:43;;;;;;;282.30;48.53;;;14.30;91.90;;;;;;5009193;28;20045;-92
2021/10/28 18:20:09;;;;;;;265.20;44.80;;;14.40;92.00;;;;;;4995305;28;20045;-92
2021/10/28 18:22:49;;;;;;;301.98;47.15;;;14.30;92.20;;;;;;5010117;28;20045;-93
2021/10/28 18:25:26;;;;;;;297.70;47.97;;;14.50;92.30;;;;;;4994138;28;20092;-90
2021/10/28 18:27:56;;;;;;;300.38;47.13;;;14.40;92.50;;;;;;5015875;28;20113;-90
2021/10/28 18:30:22;;;;;;;274.88;50.88;;;14.10;92.20;;;;;;5020117;28;20037;-91
2021/10/28 18:32:51;;;;;;;290.48;47.85;;;14.70;92.10;;;;;;4997796;28;20115;-91
2021/10/28 18:35:17;;;;;;;298.75;47.15;;;14.20;91.90;;;;;;4996523;28;20040;-89
2021/10/28 18:37:43;;;;;;;262.48;48.15;;;14.20;91.80;;;;;;5013591;28;20132;-90
2021/10/28 18:40:10;;;;;;;264.20;41.95;;;14.30;91.90;;;;;;5012651;28;20029;-90
2021/10/28 18:42:35;;;;;;;248.27;43.67;;;14.30;91.90;;;;;;4999150;28;20021;-91
2021/10/28 18:45:03;;;;;;;260.63;42.92;;;14.20;91.80;;;;;;5014882;28;20104;-90
2021/10/28 18:47:33;;;;;;;246.90;44.70;;;14.70;91.90;;;;;;4998509;28;20043;-93
2021/10/28 18:49:59;;;;;;;229.05;41.25;;;14.20;91.80;;;;;;5015699;28;20082;-91
2021/10/28 18:52:45;;;;;;;272.95;44.10;;;14.50;91.90;;;;;;5016357;28;20041;-93
2021/10/28 18:55:11;;;;;;;279.38;45.80;;;14.40;91.90;;;;;;5013911;28;21007;-89
2021/10/28 18:57:36;;;;;;;231.15;41.05;;;14.20;92.10;;;;;;4998445;28;20070;-90
2021/10/28 19:00:05;;;;;;;297.00;44.13;;;14.20;92.10;;;;;;5014717;28;20052;-90
2021/10/28 19:02:33;;;;;;;270.58;42.83;;;14.10;91.80;;;;;;4997133;28;20049;-92
2021/10/28 19:04:58;;;;;;;266.67;42.70;;;14.40;92.10;;;;;;5012798;28;20416;-91
2021/10/28 19:07:31;;;;;;;249.82;40.33;;;14.50;92.20;;;;;;5012640;28;20040;-90
2021/10/28 19:09:58;;;;;;;339.70;49.40;;;14.30;92.10;;;;;;4997115;28;20495;-91
2021/10/28 19:12:24;;;;;;;267.58;41.95;;;14.10;92.40;;;;;;5011977;28;20033;-93
2021/10/28 19:14:52;;;;;;;290.15;46.50;;;14.20;92.20;;;;;;4996357;28;20502;-94
2021/10/28 19:17:20;;;;;;;272.95;41.25;;;14.10;92.30;;;;;;4997086;28;20061;-93
2021/10/28 19:19:52;;;;;;;262.50;41.40;;;14.00;92.20;;;;;;4995173;28;20112;-91
2021/10/28 19:22:23;;;;;;;286.98;41.97;;;14.10;92.10;;;;;;4995203;28;20495;-95
2021/10/28 19:24:49;;;;;;;235.65;39.97;;;14.10;92.40;;;;;;4997397;28;20099;-93
2021/10/28 19:27:14;;;;;;;272.77;42.75;;;14.10;92.20;;;;;;5027012;28;20044;-93
2021/10/28 19:29:46;;;;;;;269.02;42.17;;;14.00;92.20;;;;;;4992357;28;20047;-92
2021/10/28 19:32:19;;;;;;;253.82;39.72;;;13.80;92.00;;;;;;5008017;28;20162;-89
2021/10/28 19:34:44;;;;;;;279.20;43.00;;;14.10;92.00;;;;;;4995188;28;20040;-91
2021/10/28 19:40:06;;;;;;;254.50;40.50;;;13.90;92.10;;;;;;5027382;28;20656;-92
2021/10/28 19:47:58;;;;;;;297.88;40.22;;;13.80;92.00;;;;;;4958865;28;20037;-92
2021/10/28 19:50:24;;;;;;;252.23;40.25;;;13.80;92.00;;;;;;4982456;28;20117;-91
2021/10/28 19:52:50;;;;;;;228.02;39.00;;;13.70;92.00;;;;;;4995124;28;20452;-90
2021/10/28 19:55:18;;;;;;;320.58;44.25;;;13.70;92.00;;;;;;4994288;28;20048;-92
2021/10/28 19:57:48;;;;;;;302.75;42.80;;;13.80;92.00;;;;;;5012729;28;20033;-92
2021/10/28 20:08:22;;;;;;;242.68;37.90;;;13.70;92.00;;;;;;5023090;28;20190;-92
2021/10/28 20:14:09;;;;;;;222.95;38.10;;;13.60;91.90;;;;;;5027863;28;20368;-91
2021/10/28 20:22:03;;;;;;;241.18;39.13;;;13.60;91.90;;;;;;5012689;28;20107;-92
2021/10/28 20:24:28;;;;;;;248.13;39.47;;;13.60;91.90;;;;;;4993887;28;20021;-93
2021/10/28 20:26:54;;;;;;;227.18;37.42;;;13.60;92.00;;;;;;4992105;28;20051;-91
2021/10/28 20:29:19;;;;;;;240.60;38.40;;;13.60;92.00;;;;;;5007251;28;20373;-89
2021/10/28 20:31:45;;;;;;;221.95;36.00;;;13.50;91.90;;;;;;4989960;28;20065;-91
2021/10/28 20:39:20;;;;;;;226.93;36.08;;;13.40;91.80;;;;;;5010118;28;20522;-91
2021/10/28 20:41:46;;;;;;;224.13;36.03;;;13.40;91.80;;;;;;5006121;28;20046;-88
2021/10/28 20:44:12;;;;;;;227.15;36.55;;;13.30;91.80;;;;;;5006003;28;20166;-91
2021/10/28 20:46:38;;;;;;;198.52;34.00;;;13.30;92.00;;;;;;5003781;28;20562;-91
2021/10/28 20:49:04;;;;;;;188.82;33.08;;;13.30;92.00;;;;;;4991520;28;20274;-89
2021/10/28 20:51:29;;;;;;;214.82;36.25;;;13.20;92.10;;;;;;4991255;28;20428;-90
2021/10/28 20:53:55;;;;;;;199.95;32.65;;;13.30;91.80;;;;;;4991644;28;20060;-91
2021/10/28 20:56:25;;;;;;;209.63;36.58;;;13.20;91.80;;;;;;4990580;28;20403;-91
2021/10/28 20:58:51;;;;;;;177.90;33.10;;;13.20;91.80;;;;;;5005998;28;20024;-92
2021/10/28 21:01:17;;;;;;;192.75;33.50;;;13.20;92.00;;;;;;4986958;28;20033;-89
2021/10/28 21:03:44;;;;;;;211.98;36.85;;;13.10;91.70;;;;;;5006824;28;20072;-92
2021/10/28 21:06:09;;;;;;;206.73;36.35;;;13.10;91.60;;;;;;4987987;28;20025;-90
2021/10/28 21:08:35;;;;;;;209.00;35.38;;;13.10;91.60;;;;;;4990826;28;20098;-89
2021/10/28 21:11:01;;;;;;;238.25;36.17;;;13.10;91.60;;;;;;4992615;28;20541;-90
2021/10/28 21:13:26;;;;;;;201.13;35.60;;;13.10;91.60;;;;;;5007446;28;20103;-90
2021/10/28 21:15:52;;;;;;;192.27;34.83;;;13.10;91.70;;;;;;5008079;28;20037;-89
2021/10/28 21:18:18;;;;;;;183.48;32.17;;;13.00;91.60;;;;;;4993832;28;20021;-90
2021/10/28 21:20:44;;;;;;;200.63;32.85;;;13.00;91.60;;;;;;5008806;28;20080;-92
2021/10/28 21:23:10;;;;;;;191.48;32.60;;;13.00;91.60;;;;;;5022203;28;20073;-91
2021/10/28 21:25:35;;;;;;;161.13;32.45;;;13.00;91.60;;;;;;4992393;28;20025;-92
2021/10/28 21:28:01;;;;;;;180.82;32.63;;;13.00;91.60;;;;;;5007520;28;20034;-90
2021/10/28 21:30:26;;;;;;;199.65;33.65;;;12.90;91.50;;;;;;4992210;28;20037;-92
2021/10/28 21:32:52;;;;;;;185.82;32.58;;;12.90;91.60;;;;;;5008752;28;20029;-91
2021/10/28 21:35:17;;;;;;;159.45;31.98;;;12.90;91.60;;;;;;4992323;28;20143;-90
2021/10/28 21:37:44;;;;;;;174.68;30.65;;;12.90;91.60;;;;;;4988950;28;20030;-89
2021/10/28 21:40:10;;;;;;;174.07;31.10;;;12.90;91.60;;;;;;5007780;28;20073;-90
2021/10/28 21:42:36;;;;;;;150.93;29.90;;;12.90;91.60;;;;;;4992420;28;20029;-90
2021/10/28 21:45:03;;;;;;;162.52;31.30;;;12.80;91.70;;;;;;5009812;28;20395;-90
2021/10/28 21:47:29;;;;;;;160.55;29.63;;;12.80;91.80;;;;;;5006703;28;20028;-90
2021/10/28 21:49:56;;;;;;;170.63;30.40;;;12.70;91.80;;;;;;5007722;28;20041;-90
2021/10/28 21:52:28;;;;;;;157.95;29.80;;;12.70;91.80;;;;;;4991514;28;20029;-91
2021/10/28 21:55:03;;;;;;;158.95;26.75;;;12.70;91.80;;;;;;5009360;28;20025;-90
2021/10/28 21:57:39;;;;;;;;;;;12.70;91.90;;;;;;4990145;28;20049;-92
2021/10/28 22:24:47;;;;;;;174.32;29.15;;;12.50;91.70;;;;;;5026307;28;20028;-91
2021/10/28 22:27:12;;;;;;;138.77;26.88;;;12.50;91.70;;;;;;4997193;28;20022;-90
2021/10/28 22:29:38;;;;;;;129.45;26.75;;;12.50;91.70;;;;;;4992776;28;20017;-91
2021/10/28 22:32:05;;;;;;;145.00;27.40;;;12.50;91.60;;;;;;4992764;28;20663;-89
2021/10/28 22:34:31;;;;;;;110.78;25.73;;;12.50;91.60;;;;;;5009383;28;20018;-91
2021/10/28 22:37:06;;;;;;;120.07;25.85;;;12.50;91.60;;;;;;5012682;28;20017;-90
2021/10/28 22:40:18;;;;;;;178.20;27.65;;;12.40;91.50;;;;;;4993265;28;20408;-90
2021/10/28 22:42:21;;;;;;;112.85;26.17;;;12.40;91.50;;;;;;5013934;28;20111;-91
2021/10/28 22:44:47;;;;;;;158.02;29.00;;;12.40;91.70;;;;;;5004169;28;20140;-90
2021/10/28 22:47:12;;;;;;;120.57;25.67;;;12.40;91.60;;;;;;5005830;28;20033;-90
2021/10/28 22:49:38;;;;;;;130.73;26.70;;;12.40;91.70;;;;;;5009028;28;20052;-91
2021/10/28 22:52:49;;;;;;;125.78;24.40;;;12.30;91.70;;;;;;5008477;28;20048;-89
2021/10/28 22:54:55;;;;;;;135.07;25.75;;;12.40;91.70;;;;;;5015808;28;20124;-92
2021/10/28 22:57:30;;;;;;;121.32;24.73;;;12.30;91.70;;;;;;4990767;28;20443;-90
2021/10/28 22:59:56;;;;;;;131.73;25.70;;;12.30;91.70;;;;;;4992120;28;20038;-90
2021/10/28 23:02:40;;;;;;;126.05;24.95;;;12.30;91.80;;;;;;5008314;28;20034;-92
2021/10/28 23:13:25;;;;;;;147.48;27.13;;;12.20;91.80;;;;;;5023249;28;20473;-90
2021/10/28 23:21:15;;;;;;;145.30;26.25;;;12.20;91.90;;;;;;5026228;28;20048;-92
2021/10/28 23:23:40;;;;;;;146.45;25.63;;;12.20;91.90;;;;;;5008573;28;20037;-90
2021/10/28 23:26:06;;;;;;;154.68;25.92;;;12.20;91.90;;;;;;5006748;28;20086;-90
2021/10/28 23:28:32;;;;;;;116.38;23.50;;;12.20;91.90;;;;;;5009761;28;20033;-90
2021/10/28 23:30:57;;;;;;;121.63;25.02;;;12.20;92.20;;;;;;5012028;28;20024;-90
2021/10/28 23:33:24;;;;;;;113.28;23.80;;;12.20;91.90;;;;;;4992580;28;20495;-91
2021/10/28 23:35:49;;;;;;;132.90;23.77;;;12.30;91.90;;;;;;4992497;28;20021;-91
2021/10/28 23:38:15;;;;;;;97.45;22.15;;;12.10;91.90;;;;;;5007797;28;20040;-91
2021/10/28 23:40:40;;;;;;;123.10;23.90;;;12.10;92.00;;;;;;4993361;28;20041;-90
2021/10/28 23:43:06;;;;;;;116.75;23.35;;;12.10;91.90;;;;;;4990656;28;20396;-91
2021/10/28 23:45:32;;;;;;;100.47;23.08;;;12.10;92.00;;;;;;5005998;28;20033;-90
2021/10/28 23:47:57;;;;;;;95.10;22.48;;;12.20;92.00;;;;;;4990513;28;20025;-92
2021/10/28 23:50:23;;;;;;;88.68;22.55;;;12.10;92.00;;;;;;4989228;28;20108;-92
2021/10/28 23:52:49;;;;;;;101.38;21.63;;;12.00;92.10;;;;;;5007531;28;20571;-92
2021/10/28 23:55:14;;;;;;;110.88;21.98;;;12.00;92.10;;;;;;5007763;28;20192;-92
2021/10/28 23:57:40;;;;;;;95.88;22.45;;;12.10;92.20;;;;;;5007196;28;20045;-90
